Impacts METAR Board INFO
IDs:

KLGA - New York/La Guardia, NY, US

Updated at: 2210 UTC 18 Dec 2017
Potential Impact None Slight Moderate High
Time18/10Z 18/11Z 18/12Z 18/13Z 18/14Z 18/15Z 18/16Z 18/17Z 18/18Z 18/19Z 18/20Z 18/21Z 18/22Z
VIS10 10 10 10 10 10 10 10 10 10 10 10 10
CIG14 13 11 11 11 11 11 9 70 70 70 70 70
CoverOVCOVCOVCOVCOVCOVCOVCOVCBKNBKNBKNOVCOVC
FltCatMVFRMVFRMVFRMVFRMVFRMVFRMVFRIFRVFRVFRVFRVFRVFR
WX--------------------------
WDir50505050404005050500290220
WSpd6 8 5 7 7 7 4 4 4 5 0 5 3
WGst-- -- -- -- -- -- -- -- -- -- -- -- --
Raw hourly METARs
KLGA 180958Z 05006KT 10SM BKN014 OVC050 02/M02 A3015 RMK AO2 T00221017 $
KLGA 181051Z 05008KT 10SM BKN013 OVC050 02/M01 A3014 RMK AO2 SLP204 T00221011 $
KLGA 181151Z 05005KT 10SM OVC011 02/M01 A3013 RMK AO2 SLP203 60002 70002 T00221011 10028 20011 56005 $
KLGA 181251Z 05007KT 10SM OVC011 03/M01 A3012 RMK AO2 SLP199 T00281006 $
KLGA 181351Z 04007KT 10SM BKN011 OVC047 03/M01 A3011 RMK AO2 SLP197 T00281006 $
KLGA 181451Z 04007KT 10SM OVC011 04/00 A3011 RMK AO2 SLP195 T00390000 56008 $
KLGA 181551Z VRB04KT 10SM OVC011 04/00 A3009 RMK AO2 SLP188 T00390000 $
KLGA 181651Z 05004KT 10SM OVC009 04/01 A3004 RMK AO2 SLP173 T00440006 $
KLGA 181751Z 05004KT 10SM FEW009 BKN070 06/02 A3001 RMK AO2 SLP163 T00560017 10061 20022 58032 $
KLGA 181851Z 05005KT 10SM BKN070 07/01 A2997 RMK AO2 SLP149 T00670011 $
KLGA 181951Z 00000KT 10SM BKN070 BKN250 07/02 A2997 RMK AO2 SLP148 T00670017 $
KLGA 182051Z 29005KT 10SM OVC070 08/01 A2996 RMK AO2 SLP146 T00780011 56017 $
KLGA 182151Z 22003KT 10SM BKN070 OVC250 08/01 A2996 RMK AO2 SLP145 T00780011 $